createdAt,value
2022-12-05T00:02:57.145Z,4.73
2022-12-05T00:08:02.262Z,4.63
2022-12-05T00:13:10.253Z,4.65
2022-12-05T00:18:15.282Z,4.71
2022-12-05T00:23:20.156Z,4.82
2022-12-05T00:28:27.713Z,4.90
2022-12-05T00:33:32.678Z,5.05
2022-12-05T00:38:38.008Z,5.05
2022-12-05T00:43:46.723Z,5.21
2022-12-05T00:48:52.219Z,5.13
2022-12-05T00:53:58.043Z,5.14
2022-12-05T00:59:07.084Z,5.28
2022-12-05T01:04:24.247Z,5.85
2022-12-05T01:09:29.903Z,6.02
2022-12-05T01:14:37.620Z,6.10
2022-12-05T01:19:42.565Z,6.17
2022-12-05T01:24:47.480Z,6.15
2022-12-05T01:29:55.385Z,6.09
2022-12-05T01:35:01.195Z,6.15
2022-12-05T01:40:06.876Z,6.16
2022-12-05T01:45:19.099Z,6.21
2022-12-05T01:50:24.222Z,6.20
2022-12-05T01:55:29.291Z,6.15
2022-12-05T02:00:36.826Z,6.16
2022-12-05T02:05:42.521Z,6.15
2022-12-05T02:10:54.711Z,6.13
2022-12-05T02:16:06.337Z,6.14
2022-12-05T02:21:34.193Z,6.11
2022-12-05T02:26:53.391Z,6.13
2022-12-05T02:32:11.161Z,6.11
2022-12-05T02:37:21.293Z,6.01
2022-12-05T02:42:33.954Z,6.07
2022-12-05T02:47:45.485Z,6.04
2022-12-05T02:52:53.842Z,5.99
2022-12-05T02:58:03.789Z,5.98
2022-12-05T03:03:18.551Z,6.03
2022-12-05T03:08:28.849Z,5.92
2022-12-05T03:13:38.529Z,5.94
2022-12-05T03:18:52.114Z,5.90
2022-12-05T03:24:03.690Z,5.91
2022-12-05T03:29:23.120Z,5.87
2022-12-05T03:34:40.273Z,5.80
2022-12-05T03:39:51.604Z,5.89
2022-12-05T03:45:02.485Z,5.80
2022-12-05T03:50:17.469Z,5.80
2022-12-05T03:55:24.904Z,5.83
2022-12-05T04:00:34.212Z,5.81
2022-12-05T04:05:47.343Z,5.80
2022-12-05T04:10:57.260Z,5.77
2022-12-05T04:16:20.378Z,5.74
2022-12-05T04:21:42.286Z,5.81
2022-12-05T04:26:53.690Z,5.80
2022-12-05T04:32:04.060Z,5.82
2022-12-05T04:37:24.240Z,5.88
2022-12-05T04:42:31.923Z,5.77
2022-12-05T04:47:42.574Z,5.75
2022-12-05T04:52:53.299Z,5.68
2022-12-05T04:58:12.358Z,5.67
2022-12-05T05:03:22.562Z,5.69
2022-12-05T05:08:32.281Z,5.69
2022-12-05T05:13:37.265Z,5.66
2022-12-05T05:18:42.290Z,5.68
2022-12-05T05:23:50.151Z,5.69
2022-12-05T05:28:55.493Z,5.63
2022-12-05T05:34:09.076Z,5.64
2022-12-05T05:39:18.856Z,5.64
2022-12-05T05:44:23.826Z,5.67
2022-12-05T05:49:28.867Z,5.70
2022-12-05T05:54:36.415Z,5.69
2022-12-05T05:59:41.392Z,5.69
2022-12-05T06:04:48.867Z,5.68
2022-12-05T06:09:57.837Z,5.72
2022-12-05T06:15:08.862Z,5.75
2022-12-05T06:20:18.611Z,5.85
2022-12-05T06:25:26.144Z,5.85
2022-12-05T06:30:37.002Z,5.87
2022-12-05T06:35:42.017Z,5.95
2022-12-05T06:40:49.687Z,5.93
2022-12-05T06:45:56.324Z,5.98
2022-12-05T06:51:07.561Z,6.04
2022-12-05T06:56:18.032Z,6.03
2022-12-05T07:01:38.135Z,5.99
2022-12-05T07:06:50.531Z,6.09
2022-12-05T07:11:58.784Z,6.08
2022-12-05T07:17:03.980Z,6.09
2022-12-05T07:22:13.883Z,6.12
2022-12-05T07:27:28.011Z,6.16
2022-12-05T07:32:34.956Z,6.27
2022-12-05T07:37:40.325Z,6.18
2022-12-05T07:42:55.486Z,6.15
2022-12-05T07:48:00.921Z,6.13
2022-12-05T07:53:06.177Z,6.20
2022-12-05T07:58:13.797Z,6.14
2022-12-05T08:03:24.058Z,6.23
2022-12-05T08:08:33.425Z,6.20
2022-12-05T08:13:46.621Z,6.33
2022-12-05T08:19:02.394Z,6.25
2022-12-05T08:24:14.238Z,6.38
2022-12-05T08:29:25.516Z,6.48
2022-12-05T08:34:30.463Z,6.42
2022-12-05T08:39:38.921Z,6.41
2022-12-05T08:44:52.877Z,6.45
2022-12-05T08:49:58.519Z,6.37
2022-12-05T08:55:03.731Z,6.35
2022-12-05T09:00:12.662Z,6.53
2022-12-05T09:05:27.644Z,6.66
2022-12-05T09:10:34.494Z,6.59
2022-12-05T09:15:48.530Z,6.58
2022-12-05T09:20:57.215Z,6.91
2022-12-05T09:26:05.311Z,6.81
2022-12-05T09:31:16.217Z,6.93
2022-12-05T09:36:26.289Z,6.93
2022-12-05T09:42:07.441Z,6.94
2022-12-05T09:47:24.650Z,6.93
2022-12-05T09:52:31.919Z,6.84
2022-12-05T09:57:41.888Z,6.97
2022-12-05T10:03:01.089Z,7.00
2022-12-05T10:08:15.762Z,7.09
2022-12-05T10:13:36.089Z,6.78
2022-12-05T10:18:47.046Z,6.86
2022-12-05T10:23:58.750Z,6.91
2022-12-05T10:29:15.475Z,6.59
2022-12-05T10:34:31.854Z,6.62
2022-12-05T10:39:37.385Z,6.49
2022-12-05T10:44:43.174Z,6.56
2022-12-05T10:49:51.304Z,6.61
2022-12-05T10:55:05.108Z,6.61
2022-12-05T11:00:15.787Z,6.70
2022-12-05T11:05:36.433Z,6.53
2022-12-05T11:10:44.326Z,6.59
2022-12-05T11:15:55.377Z,6.77
2022-12-05T11:21:14.706Z,6.90
2022-12-05T11:26:22.642Z,6.89
2022-12-05T11:31:31.235Z,6.89
2022-12-05T11:36:46.924Z,6.85
2022-12-05T11:42:07.195Z,6.89
2022-12-05T11:47:24.963Z,6.89
2022-12-05T11:52:42.692Z,6.98
2022-12-05T11:58:14.313Z,7.04
2022-12-05T12:03:46.564Z,7.03
2022-12-05T12:09:11.200Z,7.03
2022-12-05T12:14:23.047Z,7.22
2022-12-05T12:19:46.226Z,7.13
2022-12-05T12:25:20.446Z,6.99
2022-12-05T12:30:39.709Z,7.05
2022-12-05T12:35:54.507Z,6.99
2022-12-05T12:41:25.201Z,6.95
2022-12-05T12:47:06.239Z,6.87
2022-12-05T12:58:43.547Z,7.01
2022-12-05T13:04:32.073Z,6.97
2022-12-05T13:09:51.525Z,6.98
2022-12-05T13:15:06.506Z,7.00
2022-12-05T13:20:19.355Z,6.88
2022-12-05T13:25:34.335Z,6.98
2022-12-05T13:31:01.977Z,6.91
2022-12-05T13:36:25.832Z,6.65
2022-12-05T13:41:57.742Z,6.53
2022-12-05T13:47:10.315Z,6.72
2022-12-05T13:52:24.820Z,6.71
2022-12-05T13:57:56.441Z,6.79
2022-12-05T14:03:15.772Z,6.48
2022-12-05T14:08:50.597Z,6.80
2022-12-05T14:14:04.562Z,6.80
2022-12-05T14:19:33.841Z,6.89
2022-12-05T14:24:48.961Z,6.94
2022-12-05T14:30:07.858Z,7.04
2022-12-05T14:35:20.618Z,7.02
2022-12-05T14:40:32.581Z,6.74
2022-12-05T14:45:47.103Z,6.90
2022-12-05T14:51:01.371Z,6.56
2022-12-05T14:56:17.409Z,6.45
2022-12-05T15:01:26.208Z,6.58
2022-12-05T15:06:38.567Z,6.51
2022-12-05T15:11:45.972Z,6.53
2022-12-05T15:16:55.744Z,6.61
2022-12-05T15:22:32.839Z,6.32
2022-12-05T15:27:39.728Z,6.59
2022-12-05T15:32:46.098Z,6.63
2022-12-05T15:38:02.705Z,6.38
2022-12-05T15:43:32.001Z,6.20
2022-12-05T15:48:37.553Z,6.28
2022-12-05T15:53:51.793Z,6.18
2022-12-05T15:59:05.924Z,6.13
2022-12-05T16:04:29.204Z,6.16
2022-12-05T16:09:43.699Z,6.14
2022-12-05T16:14:59.903Z,6.08
2022-12-05T16:20:28.308Z,6.09
2022-12-05T16:25:41.877Z,5.89
2022-12-05T16:31:04.069Z,6.08
2022-12-05T16:36:13.339Z,5.96
2022-12-05T16:41:22.728Z,6.00
2022-12-05T16:46:47.663Z,6.11
2022-12-05T16:52:02.899Z,5.89
2022-12-05T16:57:15.044Z,6.39
2022-12-05T17:02:22.044Z,6.37
2022-12-05T17:07:32.404Z,6.15
2022-12-05T17:12:47.419Z,6.33
2022-12-05T17:17:53.279Z,6.35
2022-12-05T17:22:58.790Z,6.21
2022-12-05T17:28:06.602Z,6.34
2022-12-05T17:33:14.191Z,6.48
2022-12-05T17:38:22.168Z,6.26
2022-12-05T17:43:34.437Z,6.24
2022-12-05T17:48:39.752Z,6.00
2022-12-05T17:53:45.828Z,5.93
2022-12-05T17:58:53.914Z,6.07
2022-12-05T18:03:59.085Z,6.02
2022-12-05T18:09:04.136Z,5.90
2022-12-05T18:14:12.993Z,5.78
2022-12-05T18:19:21.438Z,6.03
2022-12-05T18:24:27.352Z,5.90
2022-12-05T18:29:34.992Z,5.71
2022-12-05T18:34:39.918Z,5.85
2022-12-05T18:39:48.197Z,5.65
2022-12-05T18:44:58.450Z,5.55
2022-12-05T18:50:04.474Z,5.68
2022-12-05T18:55:17.251Z,5.56
2022-12-05T19:00:29.731Z,5.65
2022-12-05T19:05:35.571Z,5.65
2022-12-05T19:10:40.519Z,5.47
2022-12-05T19:15:48.293Z,5.74
2022-12-05T19:20:54.216Z,5.53
2022-12-05T19:26:02.071Z,5.85
2022-12-05T19:31:11.981Z,5.91
2022-12-05T19:36:18.977Z,5.53
2022-12-05T19:41:28.252Z,5.66
2022-12-05T19:46:36.924Z,5.61
2022-12-05T19:51:43.430Z,5.73
2022-12-05T19:56:49.168Z,5.53
2022-12-05T20:01:58.899Z,5.63
2022-12-05T20:07:07.478Z,5.91
2022-12-05T20:12:14.341Z,5.96
2022-12-05T20:17:22.381Z,5.97
2022-12-05T20:22:31.072Z,5.82
2022-12-05T20:27:38.799Z,5.83
2022-12-05T20:32:47.869Z,5.91
2022-12-05T20:37:55.361Z,5.74
2022-12-05T20:43:00.967Z,5.43
2022-12-05T20:48:09.447Z,5.40
2022-12-05T20:53:18.910Z,5.26
2022-12-05T20:58:24.149Z,5.18
2022-12-05T21:03:31.964Z,5.20
2022-12-05T21:08:36.942Z,5.31
2022-12-05T21:13:43.247Z,5.34
2022-12-05T21:18:53.534Z,5.62
2022-12-05T21:24:00.098Z,5.29
2022-12-05T21:29:07.331Z,5.48
2022-12-05T21:34:17.470Z,5.38
2022-12-05T21:39:24.687Z,5.24
2022-12-05T21:44:29.550Z,4.98
2022-12-05T21:49:38.430Z,5.52
2022-12-05T21:54:43.574Z,5.23
2022-12-05T21:59:48.558Z,5.15
2022-12-05T22:04:56.174Z,5.27
2022-12-05T22:10:01.321Z,5.19
2022-12-05T22:15:07.222Z,5.06
2022-12-05T22:20:14.985Z,5.44
2022-12-05T22:25:21.454Z,5.19
2022-12-05T22:30:26.462Z,5.03
2022-12-05T22:35:34.545Z,5.06
2022-12-05T22:40:39.726Z,4.95
2022-12-05T22:45:44.688Z,4.81
2022-12-05T22:50:54.364Z,4.91
2022-12-05T22:56:05.239Z,4.93
2022-12-05T23:01:16.126Z,5.03
2022-12-05T23:06:23.866Z,4.78
2022-12-05T23:11:30.872Z,5.16
2022-12-05T23:16:36.591Z,5.37
2022-12-05T23:21:44.496Z,5.03
2022-12-05T23:26:49.387Z,5.17
2022-12-05T23:31:54.451Z,4.95
2022-12-05T23:37:02.042Z,4.76
2022-12-05T23:42:12.130Z,4.73
2022-12-05T23:47:20.595Z,4.79
2022-12-05T23:52:28.342Z,4.71
2022-12-05T23:57:33.439Z,4.65
